St. Louis Express — WDD3825 — position and weather

sailwx.info

Track history (hours):
 
Tides and Currents Weather Stations Pressure Air Temp Water Temp Dewpoint Dewpoint Depression Visibility Wind Speed Wind Dir Waves Ship Positions

St. Louis Express

Owner: Marine Transport Management, Inc C/O Crowley Ship Management, Jacksonville, FL. More information available from US FCC via Universal Licensing System.

Last reported at 2014-Oct-30 18:00 UTC. Time now 2014-Oct-31 12:51 UTC.
Position N 36°48' W 075°42'.

Type: Ship (hazmat cat D). MMSI: 367136680.

Wind from 360 at 7 knots

Waves 0.5 meters (2 feet), 3 second period

Barometer 1015.5 mb
Air temperature 25.0 ° C
Visibility: greater than 10.8 NM
Dewpoint 10.8 ° C
Water temperature 21.0 ° C

Date/timePositionNaut miles runAvg speedWind from/ knotsBaromVisibWave heightAir tempDewpointWater temp
2014-Oct-30 18:00N 36°48' W 075°42'72 8.0 360 / 71015.510.8 0.525.010.821.0
2014-Oct-30 09:00N 35°42' W 075°06'6923.0 020 / 261013.210.8 4.019.015.727.0
2014-Oct-30 06:00N 34°36' W 075°30'23119.2 250 / 181013.010.8 1.023.018.327.0
2014-Oct-29 18:00N 32°18' W 079°12'8418.1 250 / 101018.010.8 0.529.024.825.0
2014-Oct-29 13:21N 32°02' W 080°50'810.6
2014-Oct-29 12:34N 32°05' W 080°59'8 7.7
2014-Oct-29 11:34N 32°07' W 081°08'1 0.3
2014-Oct-29 09:25N 32°08' W 081°08'0 0.0
2014-Oct-29 07:28N 32°08' W 081°08'0 0.0
2014-Oct-29 05:19N 32°08' W 081°08'0 0.0
2014-Oct-29 04:25N 32°08' W 081°08'0 0.0
2014-Oct-29 03:10N 32°08' W 081°08'0 0.2
2014-Oct-29 02:33N 32°08' W 081°08'5 4.8
2014-Oct-29 01:33N 32°05' W 081°04'1411.6
2014-Oct-29 00:19N 32°00' W 080°48'2711.7
2014-Oct-28 22:00N 31°42' W 080°24'2524.5 220 / 41020.210.8 1.025.520.227.0
2014-Oct-28 21:00N 31°18' W 080°18'4715.6 330 / 51020.410.8 1.526.019.927.0
2014-Oct-28 18:00N 30°48' W 079°36'21 5.2 090 / 11021.010.8 30.019.429.0
2014-Oct-28 14:00N 30°30' W 079°48'19 9.4 120 / 81022.0 26.019.929.0
2014-Oct-28 12:00N 30°12' W 079°42'1918.7 100 / 91021.210.8 1.026.017.330.0
2014-Oct-28 11:00N 29°54' W 079°36'4824.0 110 / 91020.710.8 0.525.517.630.0
2014-Oct-28 09:00N 29°06' W 079°36'6622.0 110 / 91019.810.8 2.026.018.230.0
2014-Oct-28 06:00N 28°00' W 079°36'7421.1 110 / 201019.510.8 0.526.018.230.0
2014-Oct-28 02:28N 26°46' W 079°44'1633.8
2014-Oct-28 02:00N 26°30' W 079°42'512.4 060 / 151019.0 26.018.228.0
2014-Oct-28 01:33N 26°26' W 079°46'2222.0
2014-Oct-28 00:33N 26°04' W 079°48'2521.4
2014-Oct-27 23:24N 25°40' W 079°53'10519.4
2014-Oct-27 18:00N 24°18' W 081°06'8822.1 090 / 241015.510.8 2.529.019.928.0
2014-Oct-27 14:00N 24°06' W 082°42'3919.4 090 / 151017.0 26.018.228.0
2014-Oct-27 12:00N 24°12' W 083°24'1717.5 100 / 191015.810.8 2.525.018.828.0
2014-Oct-27 11:00N 24°18' W 083°42'4020.0 110 / 171015.310.8 2.025.519.328.0
2014-Oct-27 09:00N 24°30' W 084°24'3718.7 110 / 141014.910.8 1.525.019.630.0
2014-Oct-27 07:00N 24°48' W 085°00'14320.5 110 / 141015.010.8 1.025.017.030.0
2014-Oct-27 00:00N 25°48' W 087°24'1616.1 110 / 111015.510.8 2.026.017.330.0
2014-Oct-26 23:00N 26°00' W 087°36'4522.4 110 / 121015.210.8 1.528.519.430.0
2014-Oct-26 21:00N 26°12' W 088°24'1616.2 080 / 141015.210.8 2.026.518.830.0
2014-Oct-26 20:00N 26°12' W 088°42'1717.2 090 / 91015.510.8 0.529.019.930.0
2014-Oct-26 19:00N 26°18' W 089°00'4916.4 070 / 101016.010.8 1.028.018.830.0
2014-Oct-26 16:00N 26°42' W 089°48'2524.6 050 / 61018.0 27.019.330.0
2014-Oct-26 15:00N 26°54' W 090°12'3417.1 140 / 61018.0 26.018.230.0
2014-Oct-26 13:00N 27°06' W 090°48'9519.0 060 / 111017.510.8 1.024.518.230.0
2014-Oct-26 08:00N 27°48' W 092°24'2019.9 090 / 51018.010.8 23.015.628.0
2014-Oct-26 07:00N 28°00' W 092°42'13517.8 999 / 11018.5 23.016.528.0
2014-Oct-25 23:23N 29°21' W 094°46'1012.1
2014-Oct-25 22:33N 29°29' W 094°52'1211.8
2014-Oct-25 21:33N 29°40' W 094°58'2 2.0
2014-Oct-25 20:33N 29°41' W 095°00'0 0.0
2014-Oct-25 19:33N 29°41' W 095°00'0 0.0
2014-Oct-25 18:33N 29°41' W 095°00'0 0.0
2014-Oct-25 17:33N 29°41' W 095°00'0 0.0
2014-Oct-25 16:33N 29°41' W 095°00'0 0.0
2014-Oct-25 15:33N 29°41' W 095°00'0 0.0
2014-Oct-25 14:33N 29°41' W 095°00'0 0.0
2014-Oct-25 13:33N 29°41' W 095°00'0 0.0
2014-Oct-25 12:33N 29°41' W 095°00'0 0.0
2014-Oct-25 11:33N 29°41' W 095°00'0 0.0
2014-Oct-25 10:33N 29°41' W 095°00'0 0.0
2014-Oct-25 09:30N 29°41' W 095°00'0 0.0
2014-Oct-25 08:33N 29°41' W 095°00'0 0.0
2014-Oct-25 07:33N 29°41' W 095°00'0 0.0
2014-Oct-25 06:33N 29°41' W 095°00'0 0.0
2014-Oct-25 05:33N 29°41' W 095°00'0 0.0
2014-Oct-25 04:33N 29°41' W 095°00'0 0.0
2014-Oct-25 03:27N 29°41' W 095°00'0 0.0
2014-Oct-25 02:33N 29°41' W 095°00'0 0.0
2014-Oct-25 01:33N 29°41' W 095°00'0 0.0
2014-Oct-25 00:33N 29°41' W 095°00'0 0.0
2014-Oct-24 23:33N 29°41' W 095°00'0 0.0
2014-Oct-24 22:33N 29°41' W 095°00'0 0.0
2014-Oct-24 21:33N 29°41' W 095°00'0 0.0
2014-Oct-24 20:33N 29°41' W 095°00'0 0.0
2014-Oct-24 19:30N 29°41' W 095°00'0 0.0
2014-Oct-24 18:33N 29°41' W 095°00'0 0.0
2014-Oct-24 17:33N 29°41' W 095°00'0 0.0
2014-Oct-24 16:33N 29°41' W 095°00'0 0.0
2014-Oct-24 15:33N 29°41' W 095°00'0 0.0
2014-Oct-24 14:33N 29°41' W 095°00'0 0.0
2014-Oct-24 13:33N 29°41' W 095°00'0 0.0
2014-Oct-24 12:33N 29°41' W 095°00'0 0.0
2014-Oct-24 11:33N 29°41' W 095°00'0 0.0
2014-Oct-24 10:33N 29°41' W 095°00'0 0.0
2014-Oct-24 09:33N 29°41' W 095°00'0 0.0
2014-Oct-24 08:33N 29°41' W 095°00'0 0.0
2014-Oct-24 07:33N 29°41' W 095°00'0 0.0
2014-Oct-24 06:33N 29°41' W 095°00'0 0.0
2014-Oct-24 05:33N 29°41' W 095°00'0 0.0
2014-Oct-24 04:33N 29°41' W 095°00'0 0.0
2014-Oct-24 03:33N 29°41' W 095°00'0 0.0
2014-Oct-24 02:33N 29°41' W 095°00'0 0.0
2014-Oct-24 01:33N 29°41' W 095°00'0 0.0
2014-Oct-24 00:33N 29°41' W 095°00'0 0.0
2014-Oct-23 23:33N 29°41' W 095°00'0 0.0
2014-Oct-23 22:33N 29°41' W 095°00'0 0.0
2014-Oct-23 21:33N 29°41' W 095°00'0 0.0
2014-Oct-23 20:33N 29°41' W 095°00'0 0.0
2014-Oct-23 19:33N 29°41' W 095°00'0 0.0
2014-Oct-23 18:33N 29°41' W 095°00'0 0.0
2014-Oct-23 17:33N 29°41' W 095°00'0 0.0
2014-Oct-23 16:33N 29°41' W 095°00'0 0.0
2014-Oct-23 15:30N 29°41' W 095°00'0 0.0
2014-Oct-23 14:33N 29°41' W 095°00'0 0.0
2014-Oct-23 13:33N 29°41' W 095°00'0 0.0
2014-Oct-23 12:33N 29°41' W 095°00'0 0.0
2014-Oct-23 11:33N 29°41' W 095°00'0 0.0
2014-Oct-23 10:33N 29°41' W 095°00'0 0.0
2014-Oct-23 09:33N 29°41' W 095°00'0 0.0
2014-Oct-23 08:33N 29°41' W 095°00'0 0.0
2014-Oct-23 07:33N 29°41' W 095°00'0 0.0
2014-Oct-23 06:33N 29°41' W 095°00'0 0.0
2014-Oct-23 05:33N 29°41' W 095°00'0 0.0
2014-Oct-23 04:33N 29°41' W 095°00'0 0.0
2014-Oct-23 03:33N 29°41' W 095°00'0 0.0
2014-Oct-23 02:33N 29°41' W 095°00'0 0.0
2014-Oct-23 01:33N 29°41' W 095°00'0 0.0
2014-Oct-23 00:33N 29°41' W 095°00'0 0.0
2014-Oct-22 23:33N 29°41' W 095°00'0 0.0
2014-Oct-22 22:33N 29°41' W 095°00'0 0.0
2014-Oct-22 21:33N 29°41' W 095°00'0 0.0
2014-Oct-22 20:33N 29°41' W 095°00'0 0.0
2014-Oct-22 19:33N 29°41' W 095°00'0 0.0
2014-Oct-22 18:33N 29°41' W 095°00'0 0.0
2014-Oct-22 17:33N 29°41' W 095°00'0 0.0
2014-Oct-22 16:33N 29°41' W 095°00'0 0.0
2014-Oct-22 15:33N 29°41' W 095°00'0 0.0
2014-Oct-22 14:33N 29°41' W 095°00'0 0.0
2014-Oct-22 13:33N 29°41' W 095°00'0 0.0
2014-Oct-22 12:33N 29°41' W 095°00'0 0.0
2014-Oct-22 11:33N 29°41' W 095°00'0 0.0
2014-Oct-22 10:33N 29°41' W 095°00'0 0.0
2014-Oct-22 09:33N 29°41' W 095°00'0 0.0
2014-Oct-22 08:33N 29°41' W 095°00'0 0.0
2014-Oct-22 07:33N 29°41' W 095°00'0 0.0
2014-Oct-22 06:34N 29°41' W 095°00'0 0.0
2014-Oct-22 05:34N 29°41' W 095°00'0 0.0
2014-Oct-22 04:33N 29°41' W 095°00'0 0.0
2014-Oct-22 03:34N 29°41' W 095°00'0 0.0
2014-Oct-22 02:34N 29°41' W 095°00'0 0.0
2014-Oct-22 01:33N 29°41' W 095°00'0 0.0
2014-Oct-22 00:33N 29°41' W 095°00'0 0.0
2014-Oct-21 23:33N 29°41' W 095°00'0 0.0
2014-Oct-21 22:34N 29°41' W 095°00'0 0.0
2014-Oct-21 21:33N 29°41' W 095°00'0 0.0
2014-Oct-21 20:33N 29°41' W 095°00'0 0.0
2014-Oct-21 19:34N 29°41' W 095°00'0 0.0
2014-Oct-21 18:33N 29°41' W 095°00'0 0.0
2014-Oct-21 17:34N 29°41' W 095°00'0 0.0
2014-Oct-21 16:33N 29°41' W 095°00'0 0.0
2014-Oct-21 15:34N 29°41' W 095°00'0 0.0
2014-Oct-21 14:33N 29°41' W 095°00'0 0.0
2014-Oct-21 13:33N 29°41' W 095°00'0 0.0
2014-Oct-21 12:34N 29°41' W 095°00'0 0.0
2014-Oct-21 11:34N 29°41' W 095°00'0 0.0
2014-Oct-21 10:34N 29°41' W 095°00'0 0.0
2014-Oct-21 09:33N 29°41' W 095°00'0 0.0
2014-Oct-21 08:33N 29°41' W 095°00'0 0.0
2014-Oct-21 07:33N 29°41' W 095°00'0 0.0
2014-Oct-21 06:33N 29°41' W 095°00'0 0.0
2014-Oct-21 05:33N 29°41' W 095°00'0 0.0
2014-Oct-21 04:33N 29°41' W 095°00'0 0.0
2014-Oct-21 03:33N 29°41' W 095°00'0 0.1
2014-Oct-21 02:33N 29°41' W 095°00'6 6.4
2014-Oct-21 01:33N 29°35' W 094°56'1515.4
2014-Oct-21 00:33N 29°22' W 094°48'  
Track history (hours):
 
Tides and Currents Weather Stations Pressure Air Temp Water Temp Dewpoint Dewpoint Depression Visibility Wind Speed Wind Dir Waves Ship Positions

St. Louis Express

Owner: Marine Transport Management, Inc C/O Crowley Ship Management, Jacksonville, FL. More information available from US FCC via Universal Licensing System.

Last reported at 2014-Oct-30 18:00 UTC. Time now 2014-Oct-31 12:51 UTC.
Position N 36°48' W 075°42'.

Type: Ship (hazmat cat D). MMSI: 367136680.

Wind from 360 at 7 knots

Waves 0.5 meters (2 feet), 3 second period

Barometer 1015.5 mb
Air temperature 25.0 ° C
Visibility: greater than 10.8 NM
Dewpoint 10.8 ° C
Water temperature 21.0 ° C

Date/timePositionNaut miles runAvg speedWind from/ knotsBaromVisibWave heightAir tempDewpointWater temp
2014-Oct-30 18:00N 36°48' W 075°42'72 8.0 360 / 71015.510.8 0.525.010.821.0
2014-Oct-30 09:00N 35°42' W 075°06'6923.0 020 / 261013.210.8 4.019.015.727.0
2014-Oct-30 06:00N 34°36' W 075°30'23119.2 250 / 181013.010.8 1.023.018.327.0
2014-Oct-29 18:00N 32°18' W 079°12'8418.1 250 / 101018.010.8 0.529.024.825.0
2014-Oct-29 13:21N 32°02' W 080°50'810.6
2014-Oct-29 12:34N 32°05' W 080°59'8 7.7
2014-Oct-29 11:34N 32°07' W 081°08'1 0.3
2014-Oct-29 09:25N 32°08' W 081°08'0 0.0
2014-Oct-29 07:28N 32°08' W 081°08'0 0.0
2014-Oct-29 05:19N 32°08' W 081°08'0 0.0
2014-Oct-29 04:25N 32°08' W 081°08'0 0.0
2014-Oct-29 03:10N 32°08' W 081°08'0 0.2
2014-Oct-29 02:33N 32°08' W 081°08'5 4.8
2014-Oct-29 01:33N 32°05' W 081°04'1411.6
2014-Oct-29 00:19N 32°00' W 080°48'2711.7
2014-Oct-28 22:00N 31°42' W 080°24'2524.5 220 / 41020.210.8 1.025.520.227.0
2014-Oct-28 21:00N 31°18' W 080°18'4715.6 330 / 51020.410.8 1.526.019.927.0
2014-Oct-28 18:00N 30°48' W 079°36'21 5.2 090 / 11021.010.8 30.019.429.0
2014-Oct-28 14:00N 30°30' W 079°48'19 9.4 120 / 81022.0 26.019.929.0
2014-Oct-28 12:00N 30°12' W 079°42'1918.7 100 / 91021.210.8 1.026.017.330.0
2014-Oct-28 11:00N 29°54' W 079°36'4824.0 110 / 91020.710.8 0.525.517.630.0
2014-Oct-28 09:00N 29°06' W 079°36'6622.0 110 / 91019.810.8 2.026.018.230.0
2014-Oct-28 06:00N 28°00' W 079°36'7421.1 110 / 201019.510.8 0.526.018.230.0
2014-Oct-28 02:28N 26°46' W 079°44'1633.8
2014-Oct-28 02:00N 26°30' W 079°42'512.4 060 / 151019.0 26.018.228.0
2014-Oct-28 01:33N 26°26' W 079°46'2222.0
2014-Oct-28 00:33N 26°04' W 079°48'2521.4
2014-Oct-27 23:24N 25°40' W 079°53'10519.4
2014-Oct-27 18:00N 24°18' W 081°06'8822.1 090 / 241015.510.8 2.529.019.928.0
2014-Oct-27 14:00N 24°06' W 082°42'3919.4 090 / 151017.0 26.018.228.0
2014-Oct-27 12:00N 24°12' W 083°24'1717.5 100 / 191015.810.8 2.525.018.828.0
2014-Oct-27 11:00N 24°18' W 083°42'4020.0 110 / 171015.310.8 2.025.519.328.0
2014-Oct-27 09:00N 24°30' W 084°24'3718.7 110 / 141014.910.8 1.525.019.630.0
2014-Oct-27 07:00N 24°48' W 085°00'14320.5 110 / 141015.010.8 1.025.017.030.0
2014-Oct-27 00:00N 25°48' W 087°24'1616.1 110 / 111015.510.8 2.026.017.330.0
2014-Oct-26 23:00N 26°00' W 087°36'4522.4 110 / 121015.210.8 1.528.519.430.0
2014-Oct-26 21:00N 26°12' W 088°24'1616.2 080 / 141015.210.8 2.026.518.830.0
2014-Oct-26 20:00N 26°12' W 088°42'1717.2 090 / 91015.510.8 0.529.019.930.0
2014-Oct-26 19:00N 26°18' W 089°00'4916.4 070 / 101016.010.8 1.028.018.830.0
2014-Oct-26 16:00N 26°42' W 089°48'2524.6 050 / 61018.0 27.019.330.0
2014-Oct-26 15:00N 26°54' W 090°12'3417.1 140 / 61018.0 26.018.230.0
2014-Oct-26 13:00N 27°06' W 090°48'9519.0 060 / 111017.510.8 1.024.518.230.0
2014-Oct-26 08:00N 27°48' W 092°24'2019.9 090 / 51018.010.8 23.015.628.0
2014-Oct-26 07:00N 28°00' W 092°42'13517.8 999 / 11018.5 23.016.528.0
2014-Oct-25 23:23N 29°21' W 094°46'1012.1
2014-Oct-25 22:33N 29°29' W 094°52'1211.8
2014-Oct-25 21:33N 29°40' W 094°58'2 2.0
2014-Oct-25 20:33N 29°41' W 095°00'0 0.0
2014-Oct-25 19:33N 29°41' W 095°00'0 0.0
2014-Oct-25 18:33N 29°41' W 095°00'0 0.0
2014-Oct-25 17:33N 29°41' W 095°00'0 0.0
2014-Oct-25 16:33N 29°41' W 095°00'0 0.0
2014-Oct-25 15:33N 29°41' W 095°00'0 0.0
2014-Oct-25 14:33N 29°41' W 095°00'0 0.0
2014-Oct-25 13:33N 29°41' W 095°00'0 0.0
2014-Oct-25 12:33N 29°41' W 095°00'0 0.0
2014-Oct-25 11:33N 29°41' W 095°00'0 0.0
2014-Oct-25 10:33N 29°41' W 095°00'0 0.0
2014-Oct-25 09:30N 29°41' W 095°00'0 0.0
2014-Oct-25 08:33N 29°41' W 095°00'0 0.0
2014-Oct-25 07:33N 29°41' W 095°00'0 0.0
2014-Oct-25 06:33N 29°41' W 095°00'0 0.0
2014-Oct-25 05:33N 29°41' W 095°00'0 0.0
2014-Oct-25 04:33N 29°41' W 095°00'0 0.0
2014-Oct-25 03:27N 29°41' W 095°00'0 0.0
2014-Oct-25 02:33N 29°41' W 095°00'0 0.0
2014-Oct-25 01:33N 29°41' W 095°00'0 0.0
2014-Oct-25 00:33N 29°41' W 095°00'0 0.0
2014-Oct-24 23:33N 29°41' W 095°00'0 0.0
2014-Oct-24 22:33N 29°41' W 095°00'0 0.0
2014-Oct-24 21:33N 29°41' W 095°00'0 0.0
2014-Oct-24 20:33N 29°41' W 095°00'0 0.0
2014-Oct-24 19:30N 29°41' W 095°00'0 0.0
2014-Oct-24 18:33N 29°41' W 095°00'0 0.0
2014-Oct-24 17:33N 29°41' W 095°00'0 0.0
2014-Oct-24 16:33N 29°41' W 095°00'0 0.0
2014-Oct-24 15:33N 29°41' W 095°00'0 0.0
2014-Oct-24 14:33N 29°41' W 095°00'0 0.0
2014-Oct-24 13:33N 29°41' W 095°00'0 0.0
2014-Oct-24 12:33N 29°41' W 095°00'0 0.0
2014-Oct-24 11:33N 29°41' W 095°00'0 0.0
2014-Oct-24 10:33N 29°41' W 095°00'0 0.0
2014-Oct-24 09:33N 29°41' W 095°00'0 0.0
2014-Oct-24 08:33N 29°41' W 095°00'0 0.0
2014-Oct-24 07:33N 29°41' W 095°00'0 0.0
2014-Oct-24 06:33N 29°41' W 095°00'0 0.0
2014-Oct-24 05:33N 29°41' W 095°00'0 0.0
2014-Oct-24 04:33N 29°41' W 095°00'0 0.0
2014-Oct-24 03:33N 29°41' W 095°00'0 0.0
2014-Oct-24 02:33N 29°41' W 095°00'0 0.0
2014-Oct-24 01:33N 29°41' W 095°00'0 0.0
2014-Oct-24 00:33N 29°41' W 095°00'0 0.0
2014-Oct-23 23:33N 29°41' W 095°00'0 0.0
2014-Oct-23 22:33N 29°41' W 095°00'0 0.0
2014-Oct-23 21:33N 29°41' W 095°00'0 0.0
2014-Oct-23 20:33N 29°41' W 095°00'0 0.0
2014-Oct-23 19:33N 29°41' W 095°00'0 0.0
2014-Oct-23 18:33N 29°41' W 095°00'0 0.0
2014-Oct-23 17:33N 29°41' W 095°00'0 0.0
2014-Oct-23 16:33N 29°41' W 095°00'0 0.0
2014-Oct-23 15:30N 29°41' W 095°00'0 0.0
2014-Oct-23 14:33N 29°41' W 095°00'0 0.0
2014-Oct-23 13:33N 29°41' W 095°00'0 0.0
2014-Oct-23 12:33N 29°41' W 095°00'0 0.0
2014-Oct-23 11:33N 29°41' W 095°00'0 0.0
2014-Oct-23 10:33N 29°41' W 095°00'0 0.0
2014-Oct-23 09:33N 29°41' W 095°00'0 0.0
2014-Oct-23 08:33N 29°41' W 095°00'0 0.0
2014-Oct-23 07:33N 29°41' W 095°00'0 0.0
2014-Oct-23 06:33N 29°41' W 095°00'0 0.0
2014-Oct-23 05:33N 29°41' W 095°00'0 0.0
2014-Oct-23 04:33N 29°41' W 095°00'0 0.0
2014-Oct-23 03:33N 29°41' W 095°00'0 0.0
2014-Oct-23 02:33N 29°41' W 095°00'0 0.0
2014-Oct-23 01:33N 29°41' W 095°00'0 0.0
2014-Oct-23 00:33N 29°41' W 095°00'0 0.0
2014-Oct-22 23:33N 29°41' W 095°00'0 0.0
2014-Oct-22 22:33N 29°41' W 095°00'0 0.0
2014-Oct-22 21:33N 29°41' W 095°00'0 0.0
2014-Oct-22 20:33N 29°41' W 095°00'0 0.0
2014-Oct-22 19:33N 29°41' W 095°00'0 0.0
2014-Oct-22 18:33N 29°41' W 095°00'0 0.0
2014-Oct-22 17:33N 29°41' W 095°00'0 0.0
2014-Oct-22 16:33N 29°41' W 095°00'0 0.0
2014-Oct-22 15:33N 29°41' W 095°00'0 0.0
2014-Oct-22 14:33N 29°41' W 095°00'0 0.0
2014-Oct-22 13:33N 29°41' W 095°00'0 0.0
2014-Oct-22 12:33N 29°41' W 095°00'0 0.0
2014-Oct-22 11:33N 29°41' W 095°00'0 0.0
2014-Oct-22 10:33N 29°41' W 095°00'0 0.0
2014-Oct-22 09:33N 29°41' W 095°00'0 0.0
2014-Oct-22 08:33N 29°41' W 095°00'0 0.0
2014-Oct-22 07:33N 29°41' W 095°00'0 0.0
2014-Oct-22 06:34N 29°41' W 095°00'0 0.0
2014-Oct-22 05:34N 29°41' W 095°00'0 0.0
2014-Oct-22 04:33N 29°41' W 095°00'0 0.0
2014-Oct-22 03:34N 29°41' W 095°00'0 0.0
2014-Oct-22 02:34N 29°41' W 095°00'0 0.0
2014-Oct-22 01:33N 29°41' W 095°00'0 0.0
2014-Oct-22 00:33N 29°41' W 095°00'0 0.0
2014-Oct-21 23:33N 29°41' W 095°00'0 0.0
2014-Oct-21 22:34N 29°41' W 095°00'0 0.0
2014-Oct-21 21:33N 29°41' W 095°00'0 0.0
2014-Oct-21 20:33N 29°41' W 095°00'0 0.0
2014-Oct-21 19:34N 29°41' W 095°00'0 0.0
2014-Oct-21 18:33N 29°41' W 095°00'0 0.0
2014-Oct-21 17:34N 29°41' W 095°00'0 0.0
2014-Oct-21 16:33N 29°41' W 095°00'0 0.0
2014-Oct-21 15:34N 29°41' W 095°00'0 0.0
2014-Oct-21 14:33N 29°41' W 095°00'0 0.0
2014-Oct-21 13:33N 29°41' W 095°00'0 0.0
2014-Oct-21 12:34N 29°41' W 095°00'0 0.0
2014-Oct-21 11:34N 29°41' W 095°00'0 0.0
2014-Oct-21 10:34N 29°41' W 095°00'0 0.0
2014-Oct-21 09:33N 29°41' W 095°00'0 0.0
2014-Oct-21 08:33N 29°41' W 095°00'0 0.0
2014-Oct-21 07:33N 29°41' W 095°00'0 0.0
2014-Oct-21 06:33N 29°41' W 095°00'0 0.0
2014-Oct-21 05:33N 29°41' W 095°00'0 0.0
2014-Oct-21 04:33N 29°41' W 095°00'0 0.0
2014-Oct-21 03:33N 29°41' W 095°00'0 0.1
2014-Oct-21 02:33N 29°41' W 095°00'6 6.4
2014-Oct-21 01:33N 29°35' W 094°56'1515.4
2014-Oct-21 00:33N 29°22' W 094°48'  

Dump ship's entire track history